Delemont, Switzerland
Current Conditions -  °F | °C
As of 5:20 AM on Saturday 01 Nov 2014 (Local Time) from LSZG Reporting Station
Rain Showers Rain Showers  
Wind Chill: 43°   Ceiling: 100
Heat Index: 43°   Visibility: 0.03mi
Dew Point: 43°   Wind: 1mph
Humidity: 100%   Direction: NA
Pressure: 30.24"   Gusts: NA
Location:  47.37°N, 7.33°E
Report Text: LSZG 010420Z AUTO VRB01KT 0050 -SHRA BCFG VV001 06/06 Q1024
Loading
Personal Weather Stations






























Interactive Weather Map
Tropical Storm Tracking
New forecast layout! Learn more

10-Day Weather Forecast

Advertisements
Track Severe Weather on mobile